sensor_id;sensor_type;location;lat;lon;timestamp;temperature;humidity
17421;DHT22;8828;48.800;9.540;2023-04-24T00:02:24;14.00;99.90
17421;DHT22;8828;48.800;9.540;2023-04-24T00:04:52;14.00;99.90
17421;DHT22;8828;48.800;9.540;2023-04-24T00:07:21;14.00;99.90
17421;DHT22;8828;48.800;9.540;2023-04-24T00:09:49;14.00;99.90
17421;DHT22;8828;48.800;9.540;2023-04-24T00:12:17;14.00;99.90
17421;DHT22;8828;48.800;9.540;2023-04-24T00:14:44;14.00;99.90
17421;DHT22;8828;48.800;9.540;2023-04-24T00:17:12;14.00;99.90
17421;DHT22;8828;48.800;9.540;2023-04-24T00:19:40;14.00;99.90
17421;DHT22;8828;48.800;9.540;2023-04-24T00:22:09;14.00;99.90
17421;DHT22;8828;48.800;9.540;2023-04-24T00:24:38;14.00;99.90
17421;DHT22;8828;48.800;9.540;2023-04-24T00:27:06;13.90;99.90
17421;DHT22;8828;48.800;9.540;2023-04-24T00:29:34;13.90;99.90
17421;DHT22;8828;48.800;9.540;2023-04-24T00:32:01;13.80;99.90
17421;DHT22;8828;48.800;9.540;2023-04-24T00:34:29;13.80;99.90
17421;DHT22;8828;48.800;9.540;2023-04-24T00:36:58;13.80;99.90
17421;DHT22;8828;48.800;9.540;2023-04-24T00:39:26;13.80;99.90
17421;DHT22;8828;48.800;9.540;2023-04-24T00:41:56;13.80;99.90
17421;DHT22;8828;48.800;9.540;2023-04-24T00:44:23;13.70;99.90
17421;DHT22;8828;48.800;9.540;2023-04-24T00:46:51;13.70;99.90
17421;DHT22;8828;48.800;9.540;2023-04-24T00:49:21;13.70;99.90
17421;DHT22;8828;48.800;9.540;2023-04-24T00:51:49;13.80;99.90
17421;DHT22;8828;48.800;9.540;2023-04-24T00:54:18;13.80;99.90
17421;DHT22;8828;48.800;9.540;2023-04-24T00:56:46;13.80;99.90
17421;DHT22;8828;48.800;9.540;2023-04-24T00:59:15;13.80;99.90
17421;DHT22;8828;48.800;9.540;2023-04-24T01:01:43;13.90;99.90
17421;DHT22;8828;48.800;9.540;2023-04-24T01:04:12;13.90;99.90
17421;DHT22;8828;48.800;9.540;2023-04-24T01:06:40;13.90;99.90
17421;DHT22;8828;48.800;9.540;2023-04-24T01:09:08;13.90;99.90
17421;DHT22;8828;48.800;9.540;2023-04-24T01:11:37;13.90;99.90
17421;DHT22;8828;48.800;9.540;2023-04-24T01:14:05;13.90;99.90
17421;DHT22;8828;48.800;9.540;2023-04-24T01:16:34;13.90;99.90
17421;DHT22;8828;48.800;9.540;2023-04-24T01:19:05;13.90;99.90
17421;DHT22;8828;48.800;9.540;2023-04-24T01:21:33;13.90;99.90
17421;DHT22;8828;48.800;9.540;2023-04-24T01:24:05;13.90;99.90
17421;DHT22;8828;48.800;9.540;2023-04-24T01:26:33;13.90;99.90
17421;DHT22;8828;48.800;9.540;2023-04-24T01:29:01;13.90;99.90
17421;DHT22;8828;48.800;9.540;2023-04-24T01:31:28;13.80;99.90
17421;DHT22;8828;48.800;9.540;2023-04-24T01:33:57;13.90;99.90
17421;DHT22;8828;48.800;9.540;2023-04-24T01:36:25;13.80;99.90
17421;DHT22;8828;48.800;9.540;2023-04-24T01:38:54;13.80;99.90
17421;DHT22;8828;48.800;9.540;2023-04-24T01:41:23;13.90;99.90
17421;DHT22;8828;48.800;9.540;2023-04-24T01:43:51;13.90;99.90
17421;DHT22;8828;48.800;9.540;2023-04-24T01:46:19;13.90;99.90
17421;DHT22;8828;48.800;9.540;2023-04-24T01:48:47;13.80;99.90
17421;DHT22;8828;48.800;9.540;2023-04-24T01:51:15;13.80;99.90
17421;DHT22;8828;48.800;9.540;2023-04-24T01:53:43;13.80;99.90
17421;DHT22;8828;48.800;9.540;2023-04-24T01:56:11;13.80;99.90
17421;DHT22;8828;48.800;9.540;2023-04-24T01:58:40;13.80;99.90
17421;DHT22;8828;48.800;9.540;2023-04-24T02:01:08;13.80;99.90
17421;DHT22;8828;48.800;9.540;2023-04-24T02:03:36;13.80;99.90
17421;DHT22;8828;48.800;9.540;2023-04-24T02:06:04;13.80;99.90
17421;DHT22;8828;48.800;9.540;2023-04-24T02:08:31;13.80;99.90
17421;DHT22;8828;48.800;9.540;2023-04-24T02:10:59;13.80;99.90
17421;DHT22;8828;48.800;9.540;2023-04-24T02:13:28;13.80;99.90
17421;DHT22;8828;48.800;9.540;2023-04-24T02:15:57;13.80;99.90
17421;DHT22;8828;48.800;9.540;2023-04-24T02:18:25;13.70;99.90
17421;DHT22;8828;48.800;9.540;2023-04-24T02:20:53;13.70;99.90
17421;DHT22;8828;48.800;9.540;2023-04-24T02:23:21;13.70;99.90
17421;DHT22;8828;48.800;9.540;2023-04-24T02:25:49;13.70;99.90
17421;DHT22;8828;48.800;9.540;2023-04-24T02:28:17;13.70;99.90
17421;DHT22;8828;48.800;9.540;2023-04-24T02:30:44;13.70;99.90
17421;DHT22;8828;48.800;9.540;2023-04-24T02:33:13;13.70;99.90
17421;DHT22;8828;48.800;9.540;2023-04-24T02:35:41;13.70;99.90
17421;DHT22;8828;48.800;9.540;2023-04-24T02:38:09;13.70;99.90
17421;DHT22;8828;48.800;9.540;2023-04-24T02:40:37;13.80;99.90
17421;DHT22;8828;48.800;9.540;2023-04-24T02:43:05;13.80;99.90
17421;DHT22;8828;48.800;9.540;2023-04-24T02:45:32;13.80;99.90
17421;DHT22;8828;48.800;9.540;2023-04-24T02:48:01;13.80;99.90
17421;DHT22;8828;48.800;9.540;2023-04-24T02:50:30;13.80;99.90
17421;DHT22;8828;48.800;9.540;2023-04-24T02:52:58;13.80;99.90
17421;DHT22;8828;48.800;9.540;2023-04-24T02:55:25;13.70;99.90
17421;DHT22;8828;48.800;9.540;2023-04-24T02:57:53;13.70;99.90
17421;DHT22;8828;48.800;9.540;2023-04-24T03:00:21;13.70;99.90
17421;DHT22;8828;48.800;9.540;2023-04-24T03:02:49;13.60;99.90
17421;DHT22;8828;48.800;9.540;2023-04-24T03:05:17;13.60;99.90
17421;DHT22;8828;48.800;9.540;2023-04-24T03:07:46;13.60;99.90
17421;DHT22;8828;48.800;9.540;2023-04-24T03:10:14;13.60;99.90
17421;DHT22;8828;48.800;9.540;2023-04-24T03:12:41;13.60;99.90
17421;DHT22;8828;48.800;9.540;2023-04-24T03:15:09;13.60;99.90
17421;DHT22;8828;48.800;9.540;2023-04-24T03:17:37;13.60;99.90
17421;DHT22;8828;48.800;9.540;2023-04-24T03:20:05;13.60;99.90
17421;DHT22;8828;48.800;9.540;2023-04-24T03:22:34;13.60;99.90
17421;DHT22;8828;48.800;9.540;2023-04-24T03:25:04;13.70;99.90
17421;DHT22;8828;48.800;9.540;2023-04-24T03:27:32;13.70;99.90
17421;DHT22;8828;48.800;9.540;2023-04-24T03:30:00;13.70;99.90
17421;DHT22;8828;48.800;9.540;2023-04-24T03:32:28;13.60;99.90
17421;DHT22;8828;48.800;9.540;2023-04-24T03:34:56;13.60;99.90
17421;DHT22;8828;48.800;9.540;2023-04-24T03:37:23;13.60;99.90
17421;DHT22;8828;48.800;9.540;2023-04-24T03:39:52;13.60;99.90
17421;DHT22;8828;48.800;9.540;2023-04-24T03:42:22;13.50;99.90
17421;DHT22;8828;48.800;9.540;2023-04-24T03:44:49;13.50;99.90
17421;DHT22;8828;48.800;9.540;2023-04-24T03:47:17;13.50;99.90
17421;DHT22;8828;48.800;9.540;2023-04-24T03:49:45;13.50;99.90
17421;DHT22;8828;48.800;9.540;2023-04-24T03:52:13;13.60;99.90
17421;DHT22;8828;48.800;9.540;2023-04-24T03:54:41;13.50;99.90
17421;DHT22;8828;48.800;9.540;2023-04-24T03:57:08;13.60;99.90
17421;DHT22;8828;48.800;9.540;2023-04-24T03:59:37;13.50;99.90
17421;DHT22;8828;48.800;9.540;2023-04-24T04:02:05;13.50;99.90
17421;DHT22;8828;48.800;9.540;2023-04-24T04:04:34;13.50;99.90
17421;DHT22;8828;48.800;9.540;2023-04-24T04:07:02;13.40;99.90
17421;DHT22;8828;48.800;9.540;2023-04-24T04:09:31;13.40;99.90
17421;DHT22;8828;48.800;9.540;2023-04-24T04:12:00;13.40;99.90
17421;DHT22;8828;48.800;9.540;2023-04-24T04:14:28;13.40;99.90
17421;DHT22;8828;48.800;9.540;2023-04-24T04:16:57;13.30;99.90
17421;DHT22;8828;48.800;9.540;2023-04-24T04:19:25;13.30;99.90
17421;DHT22;8828;48.800;9.540;2023-04-24T04:21:52;13.30;99.90
17421;DHT22;8828;48.800;9.540;2023-04-24T04:24:22;13.20;99.90
17421;DHT22;8828;48.800;9.540;2023-04-24T04:26:50;13.20;99.90
17421;DHT22;8828;48.800;9.540;2023-04-24T04:29:18;13.10;99.90
17421;DHT22;8828;48.800;9.540;2023-04-24T04:31:46;13.00;99.90
17421;DHT22;8828;48.800;9.540;2023-04-24T04:34:15;13.00;99.90
17421;DHT22;8828;48.800;9.540;2023-04-24T04:36:43;13.00;99.90
17421;DHT22;8828;48.800;9.540;2023-04-24T04:39:12;13.00;99.90
17421;DHT22;8828;48.800;9.540;2023-04-24T04:41:41;13.00;99.90
17421;DHT22;8828;48.800;9.540;2023-04-24T04:44:09;13.00;99.90
17421;DHT22;8828;48.800;9.540;2023-04-24T04:46:36;13.00;99.90
17421;DHT22;8828;48.800;9.540;2023-04-24T04:49:05;13.00;99.90
17421;DHT22;8828;48.800;9.540;2023-04-24T04:51:34;13.00;99.90
17421;DHT22;8828;48.800;9.540;2023-04-24T04:54:01;13.00;99.90
17421;DHT22;8828;48.800;9.540;2023-04-24T04:56:29;13.00;99.90
17421;DHT22;8828;48.800;9.540;2023-04-24T04:58:57;13.00;99.90
17421;DHT22;8828;48.800;9.540;2023-04-24T05:01:25;12.90;99.90
17421;DHT22;8828;48.800;9.540;2023-04-24T05:03:54;12.80;99.90
17421;DHT22;8828;48.800;9.540;2023-04-24T05:06:22;12.70;99.90
17421;DHT22;8828;48.800;9.540;2023-04-24T05:08:51;12.60;99.90
17421;DHT22;8828;48.800;9.540;2023-04-24T05:11:23;12.50;99.90
17421;DHT22;8828;48.800;9.540;2023-04-24T05:13:51;12.40;99.90
17421;DHT22;8828;48.800;9.540;2023-04-24T05:16:18;12.40;99.90
17421;DHT22;8828;48.800;9.540;2023-04-24T05:18:46;12.40;99.90
17421;DHT22;8828;48.800;9.540;2023-04-24T05:21:14;12.40;99.90
17421;DHT22;8828;48.800;9.540;2023-04-24T05:23:41;12.30;99.90
17421;DHT22;8828;48.800;9.540;2023-04-24T05:26:11;12.30;99.90
17421;DHT22;8828;48.800;9.540;2023-04-24T05:28:38;12.40;99.90
17421;DHT22;8828;48.800;9.540;2023-04-24T05:31:06;12.40;99.90
17421;DHT22;8828;48.800;9.540;2023-04-24T05:33:34;12.30;99.90
17421;DHT22;8828;48.800;9.540;2023-04-24T05:36:02;12.40;99.90
17421;DHT22;8828;48.800;9.540;2023-04-24T05:38:30;12.30;99.90
17421;DHT22;8828;48.800;9.540;2023-04-24T05:40:57;12.40;99.90
17421;DHT22;8828;48.800;9.540;2023-04-24T05:43:26;12.40;99.90
17421;DHT22;8828;48.800;9.540;2023-04-24T05:45:54;12.40;99.90
17421;DHT22;8828;48.800;9.540;2023-04-24T05:48:22;12.40;99.90
17421;DHT22;8828;48.800;9.540;2023-04-24T05:50:50;12.50;99.90
17421;DHT22;8828;48.800;9.540;2023-04-24T05:53:19;12.50;99.90
17421;DHT22;8828;48.800;9.540;2023-04-24T05:55:47;12.60;99.90
17421;DHT22;8828;48.800;9.540;2023-04-24T05:58:15;12.60;99.90
17421;DHT22;8828;48.800;9.540;2023-04-24T06:00:44;12.60;99.90
17421;DHT22;8828;48.800;9.540;2023-04-24T06:03:13;12.60;99.90
17421;DHT22;8828;48.800;9.540;2023-04-24T06:05:41;12.60;99.90
17421;DHT22;8828;48.800;9.540;2023-04-24T06:08:09;12.60;99.90
17421;DHT22;8828;48.800;9.540;2023-04-24T06:10:37;12.60;99.90
17421;DHT22;8828;48.800;9.540;2023-04-24T06:13:05;12.50;99.90
17421;DHT22;8828;48.800;9.540;2023-04-24T06:15:33;12.50;99.90
17421;DHT22;8828;48.800;9.540;2023-04-24T06:18:02;12.50;99.90
17421;DHT22;8828;48.800;9.540;2023-04-24T06:20:30;12.50;99.90
17421;DHT22;8828;48.800;9.540;2023-04-24T06:22:58;12.50;99.90
17421;DHT22;8828;48.800;9.540;2023-04-24T06:25:25;12.40;99.90
17421;DHT22;8828;48.800;9.540;2023-04-24T06:27:54;12.40;99.90
17421;DHT22;8828;48.800;9.540;2023-04-24T06:30:22;12.40;99.90
17421;DHT22;8828;48.800;9.540;2023-04-24T06:32:50;12.40;99.90
17421;DHT22;8828;48.800;9.540;2023-04-24T06:35:19;12.50;99.90
17421;DHT22;8828;48.800;9.540;2023-04-24T06:37:47;12.50;99.90
17421;DHT22;8828;48.800;9.540;2023-04-24T06:40:15;12.50;99.90
17421;DHT22;8828;48.800;9.540;2023-04-24T06:42:44;12.60;99.90
17421;DHT22;8828;48.800;9.540;2023-04-24T06:45:12;12.60;99.90
17421;DHT22;8828;48.800;9.540;2023-04-24T06:47:40;12.70;99.90
17421;DHT22;8828;48.800;9.540;2023-04-24T06:50:08;12.70;99.90
17421;DHT22;8828;48.800;9.540;2023-04-24T06:52:38;12.80;99.90
17421;DHT22;8828;48.800;9.540;2023-04-24T06:55:06;12.80;99.90
17421;DHT22;8828;48.800;9.540;2023-04-24T06:57:34;12.90;99.90
17421;DHT22;8828;48.800;9.540;2023-04-24T07:00:02;13.00;99.90
17421;DHT22;8828;48.800;9.540;2023-04-24T07:02:31;13.10;99.90
17421;DHT22;8828;48.800;9.540;2023-04-24T07:04:59;13.20;99.90
17421;DHT22;8828;48.800;9.540;2023-04-24T07:07:27;13.20;99.90
17421;DHT22;8828;48.800;9.540;2023-04-24T07:09:56;13.30;99.90
17421;DHT22;8828;48.800;9.540;2023-04-24T07:12:24;13.50;99.90
17421;DHT22;8828;48.800;9.540;2023-04-24T07:14:52;13.60;99.90
17421;DHT22;8828;48.800;9.540;2023-04-24T07:17:20;13.70;99.90
17421;DHT22;8828;48.800;9.540;2023-04-24T07:19:48;13.80;99.90
17421;DHT22;8828;48.800;9.540;2023-04-24T07:22:16;13.90;99.90
17421;DHT22;8828;48.800;9.540;2023-04-24T07:24:44;13.90;99.90
17421;DHT22;8828;48.800;9.540;2023-04-24T07:27:13;13.90;99.90
17421;DHT22;8828;48.800;9.540;2023-04-24T07:29:42;14.00;99.90
17421;DHT22;8828;48.800;9.540;2023-04-24T07:32:10;14.10;99.90
17421;DHT22;8828;48.800;9.540;2023-04-24T07:34:38;14.20;99.90
17421;DHT22;8828;48.800;9.540;2023-04-24T07:37:06;14.30;99.90
17421;DHT22;8828;48.800;9.540;2023-04-24T07:39:34;14.30;99.90
17421;DHT22;8828;48.800;9.540;2023-04-24T07:42:01;14.40;99.90
17421;DHT22;8828;48.800;9.540;2023-04-24T07:44:31;14.40;99.90
17421;DHT22;8828;48.800;9.540;2023-04-24T07:46:59;14.40;99.90
17421;DHT22;8828;48.800;9.540;2023-04-24T07:49:27;14.20;99.90
17421;DHT22;8828;48.800;9.540;2023-04-24T07:51:55;14.20;99.90
17421;DHT22;8828;48.800;9.540;2023-04-24T07:54:23;14.10;99.90
17421;DHT22;8828;48.800;9.540;2023-04-24T07:56:50;14.00;99.90
17421;DHT22;8828;48.800;9.540;2023-04-24T07:59:18;13.80;99.90
17421;DHT22;8828;48.800;9.540;2023-04-24T08:01:47;13.70;99.90
17421;DHT22;8828;48.800;9.540;2023-04-24T08:04:15;13.70;99.90
17421;DHT22;8828;48.800;9.540;2023-04-24T08:06:44;13.70;99.90
17421;DHT22;8828;48.800;9.540;2023-04-24T08:09:12;13.50;99.90
17421;DHT22;8828;48.800;9.540;2023-04-24T08:11:40;13.60;99.90
17421;DHT22;8828;48.800;9.540;2023-04-24T08:14:07;13.90;99.90
17421;DHT22;8828;48.800;9.540;2023-04-24T08:16:35;14.20;99.90
17421;DHT22;8828;48.800;9.540;2023-04-24T08:19:04;14.50;99.90
17421;DHT22;8828;48.800;9.540;2023-04-24T08:21:33;14.70;99.90
17421;DHT22;8828;48.800;9.540;2023-04-24T08:24:01;14.80;99.90
17421;DHT22;8828;48.800;9.540;2023-04-24T08:26:31;14.80;99.90
17421;DHT22;8828;48.800;9.540;2023-04-24T08:28:59;14.80;99.90
17421;DHT22;8828;48.800;9.540;2023-04-24T08:31:27;14.60;99.90
17421;DHT22;8828;48.800;9.540;2023-04-24T08:33:55;14.40;99.90
17421;DHT22;8828;48.800;9.540;2023-04-24T08:36:24;14.20;99.90
17421;DHT22;8828;48.800;9.540;2023-04-24T08:39:09;14.10;99.90
17421;DHT22;8828;48.800;9.540;2023-04-24T08:41:37;14.00;99.90
17421;DHT22;8828;48.800;9.540;2023-04-24T08:44:05;13.90;99.90
17421;DHT22;8828;48.800;9.540;2023-04-24T08:46:36;13.80;99.90
17421;DHT22;8828;48.800;9.540;2023-04-24T08:49:04;13.70;99.90
17421;DHT22;8828;48.800;9.540;2023-04-24T08:51:33;13.70;99.90
17421;DHT22;8828;48.800;9.540;2023-04-24T08:54:01;13.70;99.90
17421;DHT22;8828;48.800;9.540;2023-04-24T08:56:30;13.80;99.90
17421;DHT22;8828;48.800;9.540;2023-04-24T08:58:59;13.90;99.90
17421;DHT22;8828;48.800;9.540;2023-04-24T09:01:27;14.30;99.90
17421;DHT22;8828;48.800;9.540;2023-04-24T09:03:55;14.70;99.90
17421;DHT22;8828;48.800;9.540;2023-04-24T09:06:24;14.90;99.90
17421;DHT22;8828;48.800;9.540;2023-04-24T09:08:54;14.90;99.90
17421;DHT22;8828;48.800;9.540;2023-04-24T09:11:22;14.90;99.90
17421;DHT22;8828;48.800;9.540;2023-04-24T09:13:50;14.90;99.90
17421;DHT22;8828;48.800;9.540;2023-04-24T09:16:19;14.80;99.90
17421;DHT22;8828;48.800;9.540;2023-04-24T09:18:46;14.80;99.90
17421;DHT22;8828;48.800;9.540;2023-04-24T09:21:14;14.70;99.90
17421;DHT22;8828;48.800;9.540;2023-04-24T09:23:42;14.60;99.90
17421;DHT22;8828;48.800;9.540;2023-04-24T09:26:11;14.40;99.90
17421;DHT22;8828;48.800;9.540;2023-04-24T09:28:40;14.30;99.90
17421;DHT22;8828;48.800;9.540;2023-04-24T09:31:08;14.20;99.90
17421;DHT22;8828;48.800;9.540;2023-04-24T09:33:37;14.20;99.90
17421;DHT22;8828;48.800;9.540;2023-04-24T09:36:05;14.10;99.90
17421;DHT22;8828;48.800;9.540;2023-04-24T09:38:33;14.10;99.90
17421;DHT22;8828;48.800;9.540;2023-04-24T09:41:02;13.90;99.90
17421;DHT22;8828;48.800;9.540;2023-04-24T09:43:31;13.80;99.90
17421;DHT22;8828;48.800;9.540;2023-04-24T09:46:00;13.70;99.90
17421;DHT22;8828;48.800;9.540;2023-04-24T09:48:32;13.60;99.90
17421;DHT22;8828;48.800;9.540;2023-04-24T09:51:00;13.60;99.90
17421;DHT22;8828;48.800;9.540;2023-04-24T09:53:29;13.50;99.90
17421;DHT22;8828;48.800;9.540;2023-04-24T09:56:01;13.50;99.90
17421;DHT22;8828;48.800;9.540;2023-04-24T09:58:29;13.40;99.90
17421;DHT22;8828;48.800;9.540;2023-04-24T10:00:59;13.30;99.90
17421;DHT22;8828;48.800;9.540;2023-04-24T10:03:29;13.30;99.90
17421;DHT22;8828;48.800;9.540;2023-04-24T10:05:58;13.50;99.90
17421;DHT22;8828;48.800;9.540;2023-04-24T10:08:26;13.70;99.90
17421;DHT22;8828;48.800;9.540;2023-04-24T10:10:54;14.10;99.90
17421;DHT22;8828;48.800;9.540;2023-04-24T10:13:22;14.40;99.90
17421;DHT22;8828;48.800;9.540;2023-04-24T10:15:49;14.50;99.90
17421;DHT22;8828;48.800;9.540;2023-04-24T10:18:19;14.60;99.90
17421;DHT22;8828;48.800;9.540;2023-04-24T10:20:48;14.80;99.90
17421;DHT22;8828;48.800;9.540;2023-04-24T10:23:16;14.90;99.90
17421;DHT22;8828;48.800;9.540;2023-04-24T10:25:45;14.90;99.90
17421;DHT22;8828;48.800;9.540;2023-04-24T10:28:13;14.90;99.90
17421;DHT22;8828;48.800;9.540;2023-04-24T10:30:42;14.70;99.90
17421;DHT22;8828;48.800;9.540;2023-04-24T10:33:10;14.60;99.90
17421;DHT22;8828;48.800;9.540;2023-04-24T10:35:40;14.40;99.90
17421;DHT22;8828;48.800;9.540;2023-04-24T10:38:10;14.20;99.90
17421;DHT22;8828;48.800;9.540;2023-04-24T10:40:39;14.20;99.90
17421;DHT22;8828;48.800;9.540;2023-04-24T10:43:07;14.20;99.90
17421;DHT22;8828;48.800;9.540;2023-04-24T10:45:38;14.30;99.90
17421;DHT22;8828;48.800;9.540;2023-04-24T10:48:06;14.30;99.90
17421;DHT22;8828;48.800;9.540;2023-04-24T10:50:45;14.40;99.90
17421;DHT22;8828;48.800;9.540;2023-04-24T10:53:14;14.40;99.90
17421;DHT22;8828;48.800;9.540;2023-04-24T10:55:44;14.50;99.90
17421;DHT22;8828;48.800;9.540;2023-04-24T10:58:12;14.80;99.90
17421;DHT22;8828;48.800;9.540;2023-04-24T11:00:41;15.10;99.90
17421;DHT22;8828;48.800;9.540;2023-04-24T11:03:22;15.10;99.90
17421;DHT22;8828;48.800;9.540;2023-04-24T11:05:52;15.00;99.90
17421;DHT22;8828;48.800;9.540;2023-04-24T11:08:24;14.90;99.90
17421;DHT22;8828;48.800;9.540;2023-04-24T11:10:59;14.90;99.90
17421;DHT22;8828;48.800;9.540;2023-04-24T11:14:00;14.70;99.90
17421;DHT22;8828;48.800;9.540;2023-04-24T11:16:21;14.50;99.90
17421;DHT22;8828;48.800;9.540;2023-04-24T11:18:50;14.40;99.90
17421;DHT22;8828;48.800;9.540;2023-04-24T11:21:20;14.30;99.90
17421;DHT22;8828;48.800;9.540;2023-04-24T11:23:49;14.20;99.90
17421;DHT22;8828;48.800;9.540;2023-04-24T11:26:18;14.10;99.90
17421;DHT22;8828;48.800;9.540;2023-04-24T11:28:47;14.00;99.90
17421;DHT22;8828;48.800;9.540;2023-04-24T11:34:06;13.90;99.90
17421;DHT22;8828;48.800;9.540;2023-04-24T11:36:34;13.90;99.90
17421;DHT22;8828;48.800;9.540;2023-04-24T11:39:02;13.90;99.90
17421;DHT22;8828;48.800;9.540;2023-04-24T11:41:30;13.90;99.90
17421;DHT22;8828;48.800;9.540;2023-04-24T11:43:58;14.00;99.90
17421;DHT22;8828;48.800;9.540;2023-04-24T11:46:27;14.00;99.90
17421;DHT22;8828;48.800;9.540;2023-04-24T11:48:55;13.90;99.90
17421;DHT22;8828;48.800;9.540;2023-04-24T11:51:24;13.80;99.90
17421;DHT22;8828;48.800;9.540;2023-04-24T11:54:07;13.80;99.90
17421;DHT22;8828;48.800;9.540;2023-04-24T11:56:35;13.80;99.90
17421;DHT22;8828;48.800;9.540;2023-04-24T11:59:04;13.80;99.90
17421;DHT22;8828;48.800;9.540;2023-04-24T12:01:42;13.90;99.90
17421;DHT22;8828;48.800;9.540;2023-04-24T12:04:09;14.00;99.90
17421;DHT22;8828;48.800;9.540;2023-04-24T12:06:39;14.10;99.90
17421;DHT22;8828;48.800;9.540;2023-04-24T12:09:07;14.30;99.90
17421;DHT22;8828;48.800;9.540;2023-04-24T12:11:52;14.40;99.90
17421;DHT22;8828;48.800;9.540;2023-04-24T12:14:20;14.60;99.90
17421;DHT22;8828;48.800;9.540;2023-04-24T12:16:47;14.70;99.90
17421;DHT22;8828;48.800;9.540;2023-04-24T12:19:17;14.60;99.90
17421;DHT22;8828;48.800;9.540;2023-04-24T12:21:59;14.50;99.90
17421;DHT22;8828;48.800;9.540;2023-04-24T12:24:27;14.40;99.90
17421;DHT22;8828;48.800;9.540;2023-04-24T12:26:54;14.20;99.90
17421;DHT22;8828;48.800;9.540;2023-04-24T12:29:22;14.10;99.90
17421;DHT22;8828;48.800;9.540;2023-04-24T12:31:50;14.00;99.90
17421;DHT22;8828;48.800;9.540;2023-04-24T12:34:18;13.90;99.90
17421;DHT22;8828;48.800;9.540;2023-04-24T12:36:46;14.00;99.90
17421;DHT22;8828;48.800;9.540;2023-04-24T12:39:16;14.20;99.90
17421;DHT22;8828;48.800;9.540;2023-04-24T12:41:50;14.50;99.90
17421;DHT22;8828;48.800;9.540;2023-04-24T12:44:18;14.90;99.90
17421;DHT22;8828;48.800;9.540;2023-04-24T12:46:46;15.10;99.90
17421;DHT22;8828;48.800;9.540;2023-04-24T12:49:14;15.20;99.90
17421;DHT22;8828;48.800;9.540;2023-04-24T12:51:41;15.20;99.90
17421;DHT22;8828;48.800;9.540;2023-04-24T12:54:09;15.10;99.90
17421;DHT22;8828;48.800;9.540;2023-04-24T12:56:39;15.00;99.90
17421;DHT22;8828;48.800;9.540;2023-04-24T12:59:07;14.80;99.90
17421;DHT22;8828;48.800;9.540;2023-04-24T13:01:35;14.60;99.90
17421;DHT22;8828;48.800;9.540;2023-04-24T13:04:03;14.50;99.90
17421;DHT22;8828;48.800;9.540;2023-04-24T13:06:30;14.50;99.90
17421;DHT22;8828;48.800;9.540;2023-04-24T13:08:59;14.50;99.90
17421;DHT22;8828;48.800;9.540;2023-04-24T13:11:27;14.40;99.90
17421;DHT22;8828;48.800;9.540;2023-04-24T13:13:56;14.30;99.90
17421;DHT22;8828;48.800;9.540;2023-04-24T13:16:23;14.30;99.90
17421;DHT22;8828;48.800;9.540;2023-04-24T13:18:51;14.20;99.90
17421;DHT22;8828;48.800;9.540;2023-04-24T13:21:19;14.30;99.90
17421;DHT22;8828;48.800;9.540;2023-04-24T13:23:47;14.40;99.90
17421;DHT22;8828;48.800;9.540;2023-04-24T13:26:15;14.40;99.90
17421;DHT22;8828;48.800;9.540;2023-04-24T13:28:43;14.30;99.90
17421;DHT22;8828;48.800;9.540;2023-04-24T13:31:12;14.30;99.90
17421;DHT22;8828;48.800;9.540;2023-04-24T13:33:41;14.20;99.90
17421;DHT22;8828;48.800;9.540;2023-04-24T13:36:09;14.20;99.90
17421;DHT22;8828;48.800;9.540;2023-04-24T13:38:37;14.00;99.90
17421;DHT22;8828;48.800;9.540;2023-04-24T13:41:06;13.80;99.90
17421;DHT22;8828;48.800;9.540;2023-04-24T13:43:34;13.50;99.90
17421;DHT22;8828;48.800;9.540;2023-04-24T13:46:03;13.30;99.90
17421;DHT22;8828;48.800;9.540;2023-04-24T13:48:32;13.20;99.90
17421;DHT22;8828;48.800;9.540;2023-04-24T13:51:00;13.30;99.90
17421;DHT22;8828;48.800;9.540;2023-04-24T13:53:28;13.40;99.90
17421;DHT22;8828;48.800;9.540;2023-04-24T13:55:56;13.60;99.90
17421;DHT22;8828;48.800;9.540;2023-04-24T13:58:23;13.80;99.90
17421;DHT22;8828;48.800;9.540;2023-04-24T14:00:51;14.00;99.90
17421;DHT22;8828;48.800;9.540;2023-04-24T14:03:19;14.10;99.90
17421;DHT22;8828;48.800;9.540;2023-04-24T14:05:48;14.10;99.90
17421;DHT22;8828;48.800;9.540;2023-04-24T14:08:16;14.10;99.90
17421;DHT22;8828;48.800;9.540;2023-04-24T14:10:44;14.20;99.90
17421;DHT22;8828;48.800;9.540;2023-04-24T14:13:12;14.20;99.90
17421;DHT22;8828;48.800;9.540;2023-04-24T14:15:39;14.20;99.90
17421;DHT22;8828;48.800;9.540;2023-04-24T14:18:07;14.10;99.90
17421;DHT22;8828;48.800;9.540;2023-04-24T14:20:35;14.00;99.90
17421;DHT22;8828;48.800;9.540;2023-04-24T14:23:04;13.90;99.90
17421;DHT22;8828;48.800;9.540;2023-04-24T14:25:32;13.80;99.90
17421;DHT22;8828;48.800;9.540;2023-04-24T14:28:00;13.70;99.90
17421;DHT22;8828;48.800;9.540;2023-04-24T14:30:28;13.50;99.90
17421;DHT22;8828;48.800;9.540;2023-04-24T14:32:55;13.20;99.90
17421;DHT22;8828;48.800;9.540;2023-04-24T14:35:23;13.10;99.90
17421;DHT22;8828;48.800;9.540;2023-04-24T14:37:54;13.00;99.90
17421;DHT22;8828;48.800;9.540;2023-04-24T14:40:23;12.80;99.90
17421;DHT22;8828;48.800;9.540;2023-04-24T14:42:54;12.90;99.90
17421;DHT22;8828;48.800;9.540;2023-04-24T14:45:23;13.10;99.90
17421;DHT22;8828;48.800;9.540;2023-04-24T14:47:51;13.30;99.90
17421;DHT22;8828;48.800;9.540;2023-04-24T14:50:19;13.50;99.90
17421;DHT22;8828;48.800;9.540;2023-04-24T14:52:50;13.60;99.90
17421;DHT22;8828;48.800;9.540;2023-04-24T14:55:17;13.80;99.90
17421;DHT22;8828;48.800;9.540;2023-04-24T14:57:47;13.90;99.90
17421;DHT22;8828;48.800;9.540;2023-04-24T15:00:15;14.00;99.90
17421;DHT22;8828;48.800;9.540;2023-04-24T15:02:43;13.90;99.90
17421;DHT22;8828;48.800;9.540;2023-04-24T15:05:11;13.80;99.90
17421;DHT22;8828;48.800;9.540;2023-04-24T15:07:39;13.90;99.90
17421;DHT22;8828;48.800;9.540;2023-04-24T15:10:08;13.80;99.90
17421;DHT22;8828;48.800;9.540;2023-04-24T15:12:36;13.90;99.90
17421;DHT22;8828;48.800;9.540;2023-04-24T15:15:06;14.10;99.90
17421;DHT22;8828;48.800;9.540;2023-04-24T15:17:34;14.10;99.90
17421;DHT22;8828;48.800;9.540;2023-04-24T15:20:02;14.10;99.90
17421;DHT22;8828;48.800;9.540;2023-04-24T15:22:31;14.20;99.90
17421;DHT22;8828;48.800;9.540;2023-04-24T15:24:59;14.10;99.90
17421;DHT22;8828;48.800;9.540;2023-04-24T15:27:27;13.80;99.90
17421;DHT22;8828;48.800;9.540;2023-04-24T15:29:55;13.70;99.90
17421;DHT22;8828;48.800;9.540;2023-04-24T15:32:26;13.60;99.90
17421;DHT22;8828;48.800;9.540;2023-04-24T15:34:54;13.60;99.90
17421;DHT22;8828;48.800;9.540;2023-04-24T15:37:33;13.50;99.90
17421;DHT22;8828;48.800;9.540;2023-04-24T15:40:01;13.50;99.90
17421;DHT22;8828;48.800;9.540;2023-04-24T15:42:31;13.40;99.90
17421;DHT22;8828;48.800;9.540;2023-04-24T15:44:59;13.40;99.90
17421;DHT22;8828;48.800;9.540;2023-04-24T15:47:28;13.40;99.90
17421;DHT22;8828;48.800;9.540;2023-04-24T15:49:56;13.30;99.90
17421;DHT22;8828;48.800;9.540;2023-04-24T15:52:24;13.30;99.90
17421;DHT22;8828;48.800;9.540;2023-04-24T15:54:52;13.30;99.90
17421;DHT22;8828;48.800;9.540;2023-04-24T15:57:20;13.30;99.90